createdAt,value
2017-11-30T00:00:01.773Z,2.32
2017-11-30T00:02:36.655Z,2.27
2017-11-30T00:05:11.482Z,2.27
2017-11-30T00:07:46.391Z,2.34
2017-11-30T00:10:21.101Z,2.41
2017-11-30T00:12:55.894Z,2.39
2017-11-30T00:15:30.513Z,2.43
2017-11-30T00:18:05.574Z,2.48
2017-11-30T00:20:40.318Z,2.49
2017-11-30T00:23:15.057Z,2.50
2017-11-30T00:25:49.326Z,2.49
2017-11-30T00:28:24.309Z,2.56
2017-11-30T00:30:59.031Z,2.61
2017-11-30T00:33:33.757Z,2.58
2017-11-30T00:36:08.641Z,2.60
2017-11-30T00:38:43.469Z,2.63
2017-11-30T00:41:18.173Z,2.61
2017-11-30T00:43:52.551Z,2.58
2017-11-30T00:46:27.301Z,2.56
2017-11-30T00:49:02.338Z,2.55
2017-11-30T00:51:37.585Z,2.62
2017-11-30T00:54:11.979Z,2.63
2017-11-30T00:56:47.069Z,2.62
2017-11-30T00:59:21.927Z,2.61
2017-11-30T01:01:56.748Z,2.56
2017-11-30T01:04:31.633Z,2.42
2017-11-30T01:07:06.306Z,2.31
2017-11-30T01:09:41.210Z,2.34
2017-11-30T01:12:15.817Z,2.43
2017-11-30T01:14:50.541Z,2.43
2017-11-30T01:17:24.930Z,2.47
2017-11-30T01:19:59.922Z,2.40
2017-11-30T01:22:34.727Z,2.44
2017-11-30T01:25:09.525Z,2.41
2017-11-30T01:27:44.554Z,2.43
2017-11-30T01:30:19.514Z,2.49
2017-11-30T01:32:54.282Z,2.48
2017-11-30T01:35:29.014Z,2.50
2017-11-30T01:38:03.942Z,2.53
2017-11-30T01:40:39.098Z,2.55
2017-11-30T01:43:14.002Z,2.54
2017-11-30T01:45:49.151Z,2.59
2017-11-30T01:48:24.055Z,2.62
2017-11-30T01:50:58.791Z,2.62
2017-11-30T01:53:33.602Z,2.59
2017-11-30T01:56:08.359Z,2.63
2017-11-30T01:58:43.443Z,2.66
2017-11-30T02:01:18.298Z,2.74
2017-11-30T02:03:53.049Z,2.73
2017-11-30T02:06:27.880Z,2.70
2017-11-30T02:09:02.930Z,2.69
2017-11-30T02:11:37.886Z,2.67
2017-11-30T02:14:12.585Z,2.63
2017-11-30T02:16:47.449Z,2.59
2017-11-30T02:19:21.630Z,2.67
2017-11-30T02:21:56.377Z,2.63
2017-11-30T02:24:31.191Z,2.60
2017-11-30T02:27:06.350Z,2.58
2017-11-30T02:29:40.847Z,2.63
2017-11-30T02:32:15.680Z,2.57
2017-11-30T02:34:50.561Z,2.55
2017-11-30T02:37:25.087Z,2.46
2017-11-30T02:40:00.081Z,2.50
2017-11-30T02:42:34.863Z,2.59
2017-11-30T02:45:09.437Z,2.61
2017-11-30T02:47:44.075Z,2.66
2017-11-30T02:50:19.229Z,2.64
2017-11-30T02:52:53.726Z,2.68
2017-11-30T02:55:28.836Z,2.69
2017-11-30T02:58:03.465Z,2.55
2017-11-30T03:00:38.130Z,2.56
2017-11-30T03:03:12.876Z,2.64
2017-11-30T03:05:47.388Z,2.61
2017-11-30T03:08:22.165Z,2.57
2017-11-30T03:10:56.720Z,2.59
2017-11-30T03:13:31.729Z,2.62
2017-11-30T03:16:06.270Z,2.66
2017-11-30T03:18:40.982Z,2.61
2017-11-30T03:21:16.185Z,2.55
2017-11-30T03:23:50.578Z,2.59
2017-11-30T03:26:25.551Z,2.51
2017-11-30T03:29:00.569Z,2.61
2017-11-30T03:31:35.470Z,2.67
2017-11-30T03:34:10.326Z,2.68
2017-11-30T03:36:45.055Z,2.68
2017-11-30T03:39:19.553Z,2.68
2017-11-30T03:41:54.486Z,2.74
2017-11-30T03:44:29.366Z,2.75
2017-11-30T03:47:04.117Z,2.75
2017-11-30T03:49:38.642Z,2.75
2017-11-30T03:52:13.314Z,2.83
2017-11-30T03:54:48.134Z,2.89
2017-11-30T03:57:22.802Z,2.86
2017-11-30T03:59:57.777Z,2.89
2017-11-30T04:02:32.544Z,2.81
2017-11-30T04:05:07.350Z,2.79
2017-11-30T04:07:42.285Z,2.83
2017-11-30T04:10:17.037Z,2.83
2017-11-30T04:12:51.735Z,2.85
2017-11-30T04:15:26.591Z,2.82
2017-11-30T04:18:01.320Z,2.78
2017-11-30T04:20:36.357Z,2.79
2017-11-30T04:23:11.114Z,2.75
2017-11-30T04:25:45.938Z,2.69
2017-11-30T04:28:20.912Z,2.79
2017-11-30T04:30:55.772Z,2.86
2017-11-30T04:33:30.603Z,2.89
2017-11-30T04:36:05.325Z,2.92
2017-11-30T04:38:40.051Z,2.86
2017-11-30T04:41:14.817Z,2.85
2017-11-30T04:43:49.757Z,2.84
2017-11-30T04:46:24.254Z,2.80
2017-11-30T04:48:59.002Z,2.83
2017-11-30T04:51:33.633Z,2.88
2017-11-30T04:54:08.401Z,2.90
2017-11-30T04:56:42.986Z,2.84
2017-11-30T04:59:17.689Z,2.84
2017-11-30T05:01:52.655Z,2.86
2017-11-30T05:04:27.417Z,2.83
2017-11-30T05:07:01.871Z,2.81
2017-11-30T05:09:36.569Z,2.88
2017-11-30T05:12:11.566Z,2.91
2017-11-30T05:14:46.514Z,2.93
2017-11-30T05:17:21.205Z,2.88
2017-11-30T05:19:56.182Z,2.85
2017-11-30T05:22:30.995Z,2.86
2017-11-30T05:25:05.800Z,2.81
2017-11-30T05:27:40.242Z,2.82
2017-11-30T05:30:15.211Z,2.93
2017-11-30T05:32:49.914Z,2.92
2017-11-30T05:35:24.806Z,2.97
2017-11-30T05:37:59.534Z,3.00
2017-11-30T05:40:34.301Z,3.01
2017-11-30T05:43:09.114Z,2.99
2017-11-30T05:45:43.686Z,3.02
2017-11-30T05:48:18.545Z,2.97
2017-11-30T05:50:53.312Z,2.94
2017-11-30T05:53:27.958Z,2.88
2017-11-30T05:56:02.761Z,2.91
2017-11-30T05:58:37.394Z,2.90
2017-11-30T06:01:12.214Z,2.88
2017-11-30T06:03:47.166Z,2.90
2017-11-30T06:06:21.999Z,2.91
2017-11-30T06:08:57.002Z,2.79
2017-11-30T06:11:31.838Z,2.81
2017-11-30T06:14:06.677Z,2.96
2017-11-30T06:16:41.630Z,3.03
2017-11-30T06:19:16.204Z,2.97
2017-11-30T06:21:51.371Z,2.94
2017-11-30T06:24:26.389Z,2.87
2017-11-30T06:27:01.498Z,2.84
2017-11-30T06:29:36.359Z,2.86
2017-11-30T06:32:11.195Z,2.81
2017-11-30T06:34:46.080Z,2.79
2017-11-30T06:37:21.174Z,2.97
2017-11-30T06:39:55.841Z,3.05
2017-11-30T06:42:30.638Z,3.04
2017-11-30T06:45:05.422Z,3.00
2017-11-30T06:47:40.201Z,2.98
2017-11-30T06:50:15.052Z,3.01
2017-11-30T06:52:49.790Z,3.01
2017-11-30T06:55:24.717Z,3.02
2017-11-30T06:57:59.454Z,3.04
2017-11-30T07:00:33.877Z,3.04
2017-11-30T07:03:08.606Z,3.01
2017-11-30T07:05:43.442Z,3.11
2017-11-30T07:08:18.128Z,3.07
2017-11-30T07:10:52.978Z,3.13
2017-11-30T07:13:27.979Z,3.19
2017-11-30T07:16:02.758Z,3.15
2017-11-30T07:18:37.587Z,3.15
2017-11-30T07:21:12.386Z,3.14
2017-11-30T07:23:47.157Z,3.16
2017-11-30T07:26:22.016Z,3.19
2017-11-30T07:28:56.447Z,3.19
2017-11-30T07:31:31.442Z,3.14
2017-11-30T07:34:06.196Z,3.07
2017-11-30T07:36:40.977Z,3.11
2017-11-30T07:39:15.712Z,3.17
2017-11-30T07:41:50.410Z,3.17
2017-11-30T07:44:25.037Z,3.18
2017-11-30T07:46:59.938Z,3.14
2017-11-30T07:49:34.843Z,3.13
2017-11-30T07:52:09.688Z,3.13
2017-11-30T07:54:44.278Z,3.16
2017-11-30T07:57:19.085Z,3.14
2017-11-30T07:59:53.914Z,3.13
2017-11-30T08:02:28.657Z,3.10
2017-11-30T08:05:03.369Z,3.15
2017-11-30T08:07:38.191Z,3.20
2017-11-30T08:10:13.080Z,3.17
2017-11-30T08:12:47.698Z,3.14
2017-11-30T08:15:22.427Z,3.26
2017-11-30T08:17:57.015Z,3.29
2017-11-30T08:20:31.766Z,3.29
2017-11-30T08:23:06.632Z,3.30
2017-11-30T08:25:41.141Z,3.30
2017-11-30T08:28:16.267Z,3.29
2017-11-30T08:30:51.170Z,3.22
2017-11-30T08:33:26.043Z,3.18
2017-11-30T08:36:00.754Z,3.22
2017-11-30T08:38:35.603Z,3.19
2017-11-30T08:41:10.440Z,3.18
2017-11-30T08:43:45.315Z,3.28
2017-11-30T08:46:20.165Z,3.35
2017-11-30T08:48:54.917Z,3.38
2017-11-30T08:51:29.827Z,3.41
2017-11-30T08:54:04.167Z,3.36
2017-11-30T08:56:38.852Z,3.31
2017-11-30T08:59:13.798Z,3.32
2017-11-30T09:01:48.418Z,3.32
2017-11-30T09:04:23.383Z,3.44
2017-11-30T09:06:58.162Z,3.39
2017-11-30T09:09:32.965Z,3.44
2017-11-30T09:12:07.407Z,3.46
2017-11-30T09:14:42.294Z,3.49
2017-11-30T09:17:17.164Z,3.48
2017-11-30T09:19:51.653Z,3.51
2017-11-30T09:22:26.713Z,3.52
2017-11-30T09:25:01.395Z,3.52
2017-11-30T09:27:36.245Z,3.56
2017-11-30T09:30:10.942Z,3.44
2017-11-30T09:32:45.898Z,3.47
2017-11-30T09:35:20.581Z,3.50
2017-11-30T09:37:55.455Z,3.55
2017-11-30T09:40:30.326Z,3.56
2017-11-30T09:43:05.210Z,3.56
2017-11-30T09:45:40.242Z,3.52
2017-11-30T09:48:14.990Z,3.53
2017-11-30T09:50:50.019Z,3.60
2017-11-30T09:53:25.171Z,3.69
2017-11-30T09:56:00.071Z,3.70
2017-11-30T09:58:35.010Z,3.76
2017-11-30T10:01:09.856Z,3.81
2017-11-30T10:03:44.793Z,3.75
2017-11-30T10:06:19.711Z,3.74
2017-11-30T10:08:54.574Z,3.70
2017-11-30T10:11:29.226Z,3.72
2017-11-30T10:14:04.224Z,3.76
2017-11-30T10:16:39.146Z,3.81
2017-11-30T10:19:14.301Z,3.84
2017-11-30T10:21:49.217Z,3.82
2017-11-30T10:24:23.870Z,3.83
2017-11-30T10:26:58.893Z,3.85
2017-11-30T10:29:33.697Z,3.83
2017-11-30T10:32:08.353Z,3.87
2017-11-30T10:34:42.927Z,3.92
2017-11-30T10:37:17.635Z,3.94
2017-11-30T10:39:52.256Z,3.99
2017-11-30T10:42:26.870Z,4.01
2017-11-30T10:45:01.773Z,3.94
2017-11-30T10:47:36.487Z,3.92
2017-11-30T10:50:11.334Z,3.95
2017-11-30T10:52:46.183Z,3.96
2017-11-30T10:55:21.093Z,3.91
2017-11-30T10:57:55.839Z,3.94
2017-11-30T11:00:30.774Z,3.97
2017-11-30T11:03:05.618Z,3.89
2017-11-30T11:05:40.563Z,3.87
2017-11-30T11:08:15.270Z,3.85
2017-11-30T11:10:50.075Z,3.76
2017-11-30T11:13:25.025Z,3.85
2017-11-30T11:15:59.860Z,3.89
2017-11-30T11:18:34.693Z,3.83
2017-11-30T11:21:09.418Z,3.89
2017-11-30T11:23:44.488Z,3.92
2017-11-30T11:26:19.191Z,3.94
2017-11-30T11:28:53.730Z,4.08
2017-11-30T11:31:28.626Z,4.15
2017-11-30T11:34:03.569Z,4.18
2017-11-30T11:36:38.515Z,4.23
2017-11-30T11:39:13.350Z,4.14
2017-11-30T11:41:48.353Z,4.13
2017-11-30T11:44:23.265Z,4.15
2017-11-30T11:46:58.024Z,4.18
2017-11-30T11:49:32.929Z,4.22
2017-11-30T11:52:07.858Z,4.13
2017-11-30T11:54:42.670Z,4.13
2017-11-30T11:57:17.478Z,4.17
2017-11-30T11:59:52.339Z,4.12
2017-11-30T12:02:26.779Z,4.01
2017-11-30T12:05:01.573Z,3.87
2017-11-30T12:07:37.264Z,3.93
2017-11-30T12:10:12.261Z,3.92
2017-11-30T12:12:47.426Z,3.92
2017-11-30T12:15:22.478Z,3.90
2017-11-30T12:17:57.451Z,3.91
2017-11-30T12:20:32.386Z,3.98
2017-11-30T12:23:07.178Z,3.95
2017-11-30T12:25:42.047Z,3.99
2017-11-30T12:28:16.794Z,4.01
2017-11-30T12:30:51.670Z,4.06
2017-11-30T12:33:26.213Z,4.01
2017-11-30T12:36:00.861Z,4.07
2017-11-30T12:38:35.679Z,4.10
2017-11-30T12:41:10.301Z,4.04
2017-11-30T12:43:45.012Z,4.01
2017-11-30T12:46:19.740Z,3.91
2017-11-30T12:48:54.589Z,3.89
2017-11-30T12:51:29.322Z,3.88
2017-11-30T12:54:04.093Z,3.91
2017-11-30T12:56:38.805Z,3.92
2017-11-30T12:59:13.268Z,3.90
2017-11-30T13:01:48.002Z,3.98
2017-11-30T13:04:22.989Z,3.95
2017-11-30T13:06:57.688Z,3.94
2017-11-30T13:09:32.517Z,3.98
2017-11-30T13:12:07.476Z,3.95
2017-11-30T13:14:42.186Z,3.89
2017-11-30T13:17:16.718Z,3.86
2017-11-30T13:19:51.649Z,3.90
2017-11-30T13:22:26.412Z,3.89
2017-11-30T13:25:01.097Z,3.97
2017-11-30T13:27:36.136Z,4.05
2017-11-30T13:30:10.876Z,4.07
2017-11-30T13:32:45.807Z,4.07
2017-11-30T13:35:20.563Z,4.08
2017-11-30T13:37:55.552Z,3.97
2017-11-30T13:40:30.233Z,3.93
2017-11-30T13:43:05.029Z,3.87
2017-11-30T13:45:39.836Z,3.84
2017-11-30T13:48:14.941Z,3.90
2017-11-30T13:50:49.746Z,3.99
2017-11-30T13:53:24.612Z,3.95
2017-11-30T13:55:59.544Z,3.95
2017-11-30T13:58:34.569Z,4.11
2017-11-30T14:01:09.876Z,4.24
2017-11-30T14:03:44.703Z,4.25
2017-11-30T14:06:19.317Z,4.13
2017-11-30T14:08:54.212Z,4.10
2017-11-30T14:11:29.085Z,3.99
2017-11-30T14:14:04.174Z,3.99
2017-11-30T14:16:38.953Z,3.98
2017-11-30T14:19:13.674Z,3.91
2017-11-30T14:21:48.460Z,3.92
2017-11-30T14:24:23.408Z,3.91
2017-11-30T14:26:58.268Z,3.94
2017-11-30T14:29:33.209Z,4.00
2017-11-30T14:32:07.910Z,4.00
2017-11-30T14:34:42.868Z,4.78
2017-11-30T14:37:17.917Z,5.59
2017-11-30T14:39:52.902Z,6.28
2017-11-30T14:42:27.849Z,6.87
2017-11-30T14:45:03.090Z,7.06
2017-11-30T14:47:37.830Z,7.16
2017-11-30T14:50:12.812Z,7.41
2017-11-30T14:52:47.532Z,7.57
2017-11-30T14:55:22.572Z,7.80
2017-11-30T14:57:57.378Z,8.30
2017-11-30T15:00:32.644Z,8.84
2017-11-30T15:03:07.364Z,9.30
2017-11-30T15:05:42.424Z,9.58
2017-11-30T15:08:17.400Z,9.45
2017-11-30T15:10:52.416Z,9.05
2017-11-30T15:13:27.289Z,8.58
2017-11-30T15:16:02.228Z,8.20
2017-11-30T15:18:38.862Z,8.02
2017-11-30T15:21:14.244Z,8.04
2017-11-30T15:23:49.161Z,8.06
2017-11-30T15:26:24.200Z,7.48
2017-11-30T15:28:59.022Z,6.78
2017-11-30T15:31:33.619Z,6.04
2017-11-30T15:34:08.529Z,5.55
2017-11-30T15:36:46.424Z,5.25
2017-11-30T15:39:21.320Z,5.02
2017-11-30T15:41:56.344Z,4.88
2017-11-30T15:44:31.384Z,4.79
2017-11-30T15:47:06.226Z,4.77
2017-11-30T15:49:41.109Z,4.76
2017-11-30T15:52:15.960Z,4.70
2017-11-30T15:54:50.757Z,4.65
2017-11-30T15:57:25.612Z,4.61
2017-11-30T16:00:00.409Z,4.64
2017-11-30T16:02:35.236Z,4.60
2017-11-30T16:05:10.170Z,4.60
2017-11-30T16:07:44.984Z,4.50
2017-11-30T16:10:19.952Z,4.45
2017-11-30T16:12:54.846Z,4.35
2017-11-30T16:15:29.671Z,4.36
2017-11-30T16:18:04.504Z,4.36
2017-11-30T16:20:39.347Z,4.32
2017-11-30T16:23:14.256Z,4.39
2017-11-30T16:25:49.338Z,4.45
2017-11-30T16:28:24.040Z,4.49
2017-11-30T16:30:59.199Z,4.50
2017-11-30T16:33:33.484Z,4.53
2017-11-30T16:36:08.389Z,4.51
2017-11-30T16:38:43.376Z,4.45
2017-11-30T16:41:18.116Z,4.49
2017-11-30T16:43:52.928Z,4.48
2017-11-30T16:46:27.860Z,4.40
2017-11-30T16:49:02.788Z,4.40
2017-11-30T16:51:37.528Z,4.45
2017-11-30T16:54:12.425Z,4.48
2017-11-30T16:56:47.248Z,4.55
2017-11-30T16:59:22.029Z,4.62
2017-11-30T17:01:56.665Z,4.56
2017-11-30T17:04:31.689Z,4.52
2017-11-30T17:07:06.430Z,4.44
2017-11-30T17:09:41.249Z,4.40
2017-11-30T17:12:16.078Z,4.42
2017-11-30T17:14:50.876Z,4.49
2017-11-30T17:17:25.608Z,4.54
2017-11-30T17:20:00.249Z,4.55
2017-11-30T17:22:35.116Z,4.54
2017-11-30T17:25:09.789Z,4.43
2017-11-30T17:27:44.614Z,4.32
2017-11-30T17:30:19.310Z,4.31
2017-11-30T17:32:54.116Z,4.35
2017-11-30T17:35:32.046Z,4.42
2017-11-30T17:38:06.787Z,4.43
2017-11-30T17:40:41.433Z,4.50
2017-11-30T17:43:16.604Z,4.49
2017-11-30T17:45:51.313Z,4.50
2017-11-30T17:48:26.366Z,4.50
2017-11-30T17:51:01.072Z,4.50
2017-11-30T17:53:36.053Z,4.51
2017-11-30T17:56:10.902Z,4.48
2017-11-30T17:58:45.575Z,4.43
2017-11-30T18:01:20.536Z,4.47
2017-11-30T18:03:55.309Z,4.49
2017-11-30T18:06:30.161Z,4.46
2017-11-30T18:09:04.579Z,4.41
2017-11-30T18:11:39.641Z,4.38
2017-11-30T18:14:14.572Z,4.31
2017-11-30T18:16:49.816Z,4.30
2017-11-30T18:19:24.657Z,4.31
2017-11-30T18:21:59.756Z,4.30
2017-11-30T18:24:34.808Z,4.31
2017-11-30T18:27:09.912Z,4.35
2017-11-30T18:29:45.064Z,4.36
2017-11-30T18:32:19.802Z,4.35
2017-11-30T18:34:54.456Z,4.35
2017-11-30T18:37:29.192Z,4.38
2017-11-30T18:40:03.931Z,4.39
2017-11-30T18:42:38.931Z,4.41
2017-11-30T18:45:14.096Z,4.44
2017-11-30T18:47:48.894Z,4.48
2017-11-30T18:50:24.085Z,4.47
2017-11-30T18:52:58.804Z,4.45
2017-11-30T18:55:33.643Z,4.39
2017-11-30T18:58:08.681Z,4.35
2017-11-30T19:00:43.632Z,4.23
2017-11-30T19:03:18.428Z,4.19
2017-11-30T19:05:53.163Z,4.09
2017-11-30T19:08:27.795Z,4.06
2017-11-30T19:11:02.849Z,4.05
2017-11-30T19:13:37.619Z,4.08
2017-11-30T19:16:12.515Z,4.13
2017-11-30T19:18:47.409Z,4.18
2017-11-30T19:21:22.072Z,4.28
2017-11-30T19:23:56.864Z,4.35
2017-11-30T19:26:31.901Z,4.31
2017-11-30T19:29:06.961Z,4.22
2017-11-30T19:31:41.788Z,4.20
2017-11-30T19:34:16.637Z,4.19
2017-11-30T19:36:52.648Z,4.18
2017-11-30T19:39:27.988Z,4.25
2017-11-30T19:42:02.780Z,4.29
2017-11-30T19:44:37.946Z,4.32
2017-11-30T19:47:12.849Z,4.33
2017-11-30T19:49:47.652Z,4.34
2017-11-30T19:52:22.580Z,4.33
2017-11-30T19:54:57.517Z,4.30
2017-11-30T19:57:32.524Z,4.29
2017-11-30T20:00:07.265Z,4.31
2017-11-30T20:02:41.992Z,4.34
2017-11-30T20:05:16.861Z,4.36
2017-11-30T20:07:51.742Z,4.37
2017-11-30T20:10:26.576Z,4.42
2017-11-30T20:13:01.528Z,4.42
2017-11-30T20:15:36.359Z,4.41
2017-11-30T20:18:10.925Z,4.40
2017-11-30T20:20:45.820Z,4.40
2017-11-30T20:23:20.764Z,4.42
2017-11-30T20:25:55.696Z,4.38
2017-11-30T20:28:30.560Z,4.34
2017-11-30T20:31:05.334Z,4.29
2017-11-30T20:33:40.079Z,4.25
2017-11-30T20:36:14.913Z,4.28
2017-11-30T20:38:49.516Z,4.22
2017-11-30T20:41:24.544Z,4.14
2017-11-30T20:43:59.372Z,4.12
2017-11-30T20:46:34.423Z,4.13
2017-11-30T20:49:09.234Z,4.08
2017-11-30T20:51:44.176Z,4.05
2017-11-30T20:54:19.116Z,4.05
2017-11-30T20:56:53.936Z,4.11
2017-11-30T20:59:28.767Z,4.18
2017-11-30T21:02:03.866Z,4.28
2017-11-30T21:04:39.405Z,4.35
2017-11-30T21:07:14.401Z,4.41
2017-11-30T21:09:49.177Z,4.45
2017-11-30T21:12:23.984Z,4.50
2017-11-30T21:14:58.889Z,4.55
2017-11-30T21:17:33.729Z,4.61
2017-11-30T21:20:08.432Z,4.65
2017-11-30T21:22:43.388Z,4.65
2017-11-30T21:25:18.145Z,4.64
2017-11-30T21:27:53.061Z,4.61
2017-11-30T21:30:27.441Z,4.60
2017-11-30T21:33:02.324Z,4.63
2017-11-30T21:35:37.133Z,4.65
2017-11-30T21:38:11.980Z,4.66
2017-11-30T21:40:46.812Z,4.65
2017-11-30T21:43:21.824Z,4.61
2017-11-30T21:45:56.499Z,4.57
2017-11-30T21:48:31.324Z,4.58
2017-11-30T21:51:06.179Z,4.57
2017-11-30T21:53:41.076Z,4.58
2017-11-30T21:56:15.888Z,4.57
2017-11-30T21:58:50.616Z,4.52
2017-11-30T22:01:25.538Z,4.47
2017-11-30T22:04:00.397Z,4.46
2017-11-30T22:06:35.221Z,4.46
2017-11-30T22:09:09.933Z,4.38
2017-11-30T22:11:44.772Z,4.34
2017-11-30T22:14:19.516Z,4.33
2017-11-30T22:16:54.436Z,4.35
2017-11-30T22:19:29.237Z,4.39
2017-11-30T22:22:04.293Z,4.34
2017-11-30T22:24:39.313Z,4.31
2017-11-30T22:27:14.339Z,4.27
2017-11-30T22:29:49.144Z,4.24
2017-11-30T22:32:23.774Z,4.14
2017-11-30T22:34:58.714Z,4.10
2017-11-30T22:37:33.102Z,4.01
2017-11-30T22:40:08.432Z,4.02
2017-11-30T22:42:43.297Z,4.06
2017-11-30T22:45:18.014Z,4.05
2017-11-30T22:47:52.912Z,4.14
2017-11-30T22:50:27.925Z,4.14
2017-11-30T22:53:02.673Z,4.13
2017-11-30T22:55:37.829Z,4.18
2017-11-30T22:58:12.881Z,4.19
2017-11-30T23:00:47.908Z,4.20
2017-11-30T23:03:22.792Z,4.13
2017-11-30T23:05:57.215Z,4.13
2017-11-30T23:08:32.097Z,4.04
2017-11-30T23:11:07.002Z,3.96
2017-11-30T23:13:42.280Z,3.87
2017-11-30T23:16:17.190Z,3.87
2017-11-30T23:18:51.889Z,3.87
2017-11-30T23:21:27.227Z,3.85
2017-11-30T23:24:01.748Z,3.86
2017-11-30T23:26:36.810Z,3.75
2017-11-30T23:29:11.528Z,3.72
2017-11-30T23:31:46.589Z,3.72
2017-11-30T23:34:21.223Z,3.76
2017-11-30T23:36:55.924Z,3.70
2017-11-30T23:39:30.964Z,3.72
2017-11-30T23:42:05.585Z,3.73
2017-11-30T23:44:40.548Z,3.75
2017-11-30T23:47:15.204Z,3.81
2017-11-30T23:49:50.008Z,3.86
2017-11-30T23:52:24.713Z,3.90
2017-11-30T23:54:59.660Z,3.90
2017-11-30T23:57:34.375Z,3.91
